createdAt,value
2023-04-18T00:01:23.375Z,16.85
2023-04-18T00:03:50.814Z,14.95
2023-04-18T00:06:18.046Z,16.52
2023-04-18T00:08:44.563Z,12.80
2023-04-18T00:11:11.137Z,13.15
2023-04-18T00:13:39.441Z,13.55
2023-04-18T00:16:07.687Z,12.93
2023-04-18T00:18:36.771Z,11.93
2023-04-18T00:21:04.375Z,11.40
2023-04-18T00:23:31.050Z,14.48
2023-04-18T00:25:57.679Z,12.02
2023-04-18T00:28:24.335Z,16.33
2023-04-18T00:30:50.916Z,12.05
2023-04-18T00:33:17.825Z,15.48
2023-04-18T00:35:44.586Z,16.30
2023-04-18T00:38:11.144Z,16.08
2023-04-18T00:40:38.467Z,15.43
2023-04-18T00:43:08.317Z,10.90
2023-04-18T00:45:35.160Z,14.05
2023-04-18T00:48:02.078Z,16.25
2023-04-18T00:50:28.860Z,15.48
2023-04-18T00:52:56.727Z,14.48
2023-04-18T00:55:24.351Z,20.00
2023-04-18T00:57:52.024Z,14.90
2023-04-18T01:00:18.763Z,16.55
2023-04-18T01:02:45.465Z,16.30
2023-04-18T01:05:12.026Z,13.38
2023-04-18T01:07:41.594Z,12.88
2023-04-18T01:10:10.095Z,13.05
2023-04-18T01:12:37.568Z,14.48
2023-04-18T01:15:07.829Z,17.73
2023-04-18T01:17:35.956Z,15.27
2023-04-18T01:20:05.711Z,18.90
2023-04-18T01:22:33.191Z,13.77
2023-04-18T01:24:59.816Z,14.50
2023-04-18T01:27:26.460Z,14.52
2023-04-18T01:29:52.988Z,15.00
2023-04-18T01:32:20.911Z,15.27
2023-04-18T01:34:47.723Z,12.13
2023-04-18T01:37:14.361Z,11.30
2023-04-18T01:39:40.815Z,11.93
2023-04-18T01:42:07.339Z,16.75
2023-04-18T01:44:33.796Z,21.52
2023-04-18T01:47:00.561Z,14.68
2023-04-18T01:49:27.217Z,13.27
2023-04-18T01:52:14.356Z,14.48
2023-04-18T01:55:06.010Z,13.52
2023-04-18T01:57:52.863Z,13.60
2023-04-18T02:00:39.334Z,13.38
2023-04-18T02:03:26.102Z,18.25
2023-04-18T02:06:12.842Z,12.93
2023-04-18T02:08:39.305Z,12.60
2023-04-18T02:11:05.931Z,19.45
2023-04-18T02:13:32.471Z,16.20
2023-04-18T02:15:59.101Z,12.18
2023-04-18T02:18:27.158Z,11.82
2023-04-18T02:20:53.822Z,11.63
2023-04-18T02:23:22.013Z,14.25
2023-04-18T02:25:48.511Z,14.70
2023-04-18T02:28:17.222Z,14.60
2023-04-18T02:30:43.786Z,10.20
2023-04-18T02:33:10.493Z,18.00
2023-04-18T02:35:37.644Z,15.70
2023-04-18T02:38:04.147Z,13.65
2023-04-18T02:40:30.662Z,13.30
2023-04-18T02:42:59.272Z,11.93
2023-04-18T02:45:25.841Z,13.93
2023-04-18T02:47:56.060Z,12.75
2023-04-18T02:50:24.654Z,14.48
2023-04-18T02:52:52.431Z,20.70
2023-04-18T02:55:21.833Z,12.75
2023-04-18T02:57:48.435Z,12.23
2023-04-18T03:00:36.334Z,15.90
2023-04-18T03:03:22.607Z,12.93
2023-04-18T03:06:18.724Z,13.88
2023-04-18T03:08:45.398Z,14.02
2023-04-18T03:11:12.776Z,15.38
2023-04-18T03:13:39.289Z,14.57
2023-04-18T03:16:06.473Z,16.58
2023-04-18T03:18:33.846Z,17.73
2023-04-18T03:21:00.683Z,13.57
2023-04-18T03:23:28.865Z,21.63
2023-04-18T03:25:55.574Z,17.40
2023-04-18T03:28:22.392Z,15.30
2023-04-18T03:30:50.632Z,17.35
2023-04-18T03:33:17.397Z,17.95
2023-04-18T03:35:45.298Z,17.80
2023-04-18T03:38:11.855Z,15.10
2023-04-18T03:40:39.586Z,15.50
2023-04-18T03:43:13.537Z,14.63
2023-04-18T03:45:41.295Z,15.70
2023-04-18T03:48:07.808Z,15.68
2023-04-18T03:50:38.693Z,18.27
2023-04-18T03:53:08.816Z,19.60
2023-04-18T03:55:36.390Z,20.63
2023-04-18T03:58:03.189Z,18.85
2023-04-18T04:00:30.027Z,21.30
2023-04-18T04:03:02.146Z,22.42
2023-04-18T04:05:28.948Z,20.88
2023-04-18T04:07:55.523Z,16.98
2023-04-18T04:10:22.908Z,18.35
2023-04-18T04:12:50.416Z,17.40
2023-04-18T04:15:17.813Z,19.88
2023-04-18T04:17:54.201Z,17.15
2023-04-18T04:20:24.663Z,17.13
2023-04-18T04:22:58.902Z,16.17
2023-04-18T04:25:28.745Z,17.73
2023-04-18T04:28:01.263Z,19.95
2023-04-18T04:30:28.692Z,16.97
2023-04-18T04:32:56.276Z,18.80
2023-04-18T04:35:22.867Z,19.02
2023-04-18T04:37:50.639Z,16.98
2023-04-18T04:40:29.693Z,18.60
2023-04-18T04:43:05.567Z,16.83
2023-04-18T04:45:39.569Z,18.77
2023-04-18T04:48:06.341Z,17.95
2023-04-18T04:50:38.487Z,19.75
2023-04-18T04:53:06.246Z,19.02
2023-04-18T04:55:33.997Z,17.58
2023-04-18T04:58:02.182Z,17.55
2023-04-18T05:00:42.549Z,15.45
2023-04-18T05:03:10.667Z,17.38
2023-04-18T05:05:37.721Z,18.67
2023-04-18T05:08:04.407Z,16.67
2023-04-18T05:10:31.232Z,19.23
2023-04-18T05:12:57.853Z,18.85
2023-04-18T05:15:24.981Z,15.55
2023-04-18T05:17:51.611Z,17.02
2023-04-18T05:20:18.174Z,18.45
2023-04-18T05:22:44.658Z,16.92
2023-04-18T05:25:12.181Z,14.50
2023-04-18T05:27:38.890Z,12.25
2023-04-18T05:30:06.047Z,16.42
2023-04-18T05:32:32.578Z,17.65
2023-04-18T05:34:59.103Z,20.20
2023-04-18T05:37:25.766Z,16.15
2023-04-18T05:39:52.254Z,17.38
2023-04-18T05:42:18.665Z,17.63
2023-04-18T05:44:45.173Z,16.52
2023-04-18T05:47:11.688Z,17.30
2023-04-18T05:49:38.152Z,18.52
2023-04-18T05:52:04.804Z,16.38
2023-04-18T05:54:31.326Z,17.77
2023-04-18T05:56:58.373Z,18.45
2023-04-18T05:59:26.719Z,19.85
2023-04-18T06:01:53.514Z,18.38
2023-04-18T06:04:21.079Z,18.17
2023-04-18T06:06:47.894Z,18.58
2023-04-18T06:09:14.469Z,15.48
2023-04-18T06:11:40.969Z,15.75
2023-04-18T06:14:07.895Z,19.30
2023-04-18T06:16:37.016Z,19.17
2023-04-18T06:19:05.041Z,20.75
2023-04-18T06:21:31.529Z,17.63
2023-04-18T06:23:58.059Z,20.27
2023-04-18T06:26:24.506Z,19.38
2023-04-18T06:28:50.988Z,17.95
2023-04-18T06:31:17.562Z,17.73
2023-04-18T06:33:44.186Z,16.02
2023-04-18T06:36:10.619Z,19.75
2023-04-18T06:38:37.095Z,19.23
2023-04-18T06:41:03.668Z,19.15
2023-04-18T06:43:30.116Z,17.38
2023-04-18T06:45:56.924Z,15.60
2023-04-18T06:48:23.597Z,15.57
2023-04-18T06:50:50.327Z,18.77
2023-04-18T06:53:16.751Z,18.02
2023-04-18T06:55:43.331Z,18.55
2023-04-18T06:58:10.057Z,21.13
2023-04-18T07:00:36.657Z,19.80
2023-04-18T07:03:11.134Z,18.88
2023-04-18T07:05:38.925Z,21.45
2023-04-18T07:08:05.616Z,17.35
2023-04-18T07:10:32.174Z,19.00
2023-04-18T07:12:58.919Z,18.88
2023-04-18T07:15:25.360Z,19.23
2023-04-18T07:17:52.000Z,15.52
2023-04-18T07:20:18.686Z,19.92
2023-04-18T07:22:46.002Z,18.85
2023-04-18T07:25:12.541Z,19.67
2023-04-18T07:27:39.115Z,26.35
2023-04-18T07:30:06.300Z,19.17
2023-04-18T07:32:32.951Z,18.95
2023-04-18T07:34:59.896Z,20.27
2023-04-18T07:37:26.667Z,20.95
2023-04-18T07:39:53.837Z,21.38
2023-04-18T07:42:20.592Z,22.30
2023-04-18T07:44:47.439Z,20.15
2023-04-18T07:47:13.937Z,19.17
2023-04-18T07:49:40.830Z,19.73
2023-04-18T07:52:07.361Z,26.90
2023-04-18T07:54:33.820Z,18.55
2023-04-18T07:57:00.759Z,19.88
2023-04-18T07:59:29.457Z,16.55
2023-04-18T08:01:56.027Z,17.92
2023-04-18T08:04:22.774Z,18.70
2023-04-18T08:06:49.433Z,19.08
2023-04-18T08:09:16.375Z,20.23
2023-04-18T08:11:44.183Z,20.52
2023-04-18T08:14:10.983Z,19.55
2023-04-18T08:16:38.289Z,21.67
2023-04-18T08:19:06.000Z,18.65
2023-04-18T08:21:32.637Z,20.00
2023-04-18T08:23:59.221Z,17.52
2023-04-18T08:26:25.911Z,19.70
2023-04-18T08:28:52.457Z,19.50
2023-04-18T08:31:18.995Z,19.20
2023-04-18T08:33:45.617Z,16.52
2023-04-18T08:36:12.308Z,19.20
2023-04-18T08:38:38.777Z,20.38
2023-04-18T08:41:05.675Z,15.52
2023-04-18T08:43:32.381Z,17.25
2023-04-18T08:46:00.540Z,18.05
2023-04-18T08:48:29.941Z,17.88
2023-04-18T08:50:58.583Z,17.40
2023-04-18T08:53:28.388Z,19.15
2023-04-18T08:55:58.052Z,15.18
2023-04-18T08:58:27.241Z,15.15
2023-04-18T09:00:54.807Z,16.17
2023-04-18T09:03:42.449Z,15.00
2023-04-18T09:06:09.457Z,17.25
2023-04-18T09:08:36.032Z,16.50
2023-04-18T09:11:21.626Z,17.73
2023-04-18T09:13:48.552Z,14.00
2023-04-18T09:16:15.079Z,15.45
2023-04-18T09:18:42.323Z,16.05
2023-04-18T09:21:19.332Z,19.73
2023-04-18T09:23:50.370Z,14.82
2023-04-18T09:26:33.731Z,15.68
2023-04-18T09:29:01.017Z,18.70
2023-04-18T09:31:29.079Z,13.55
2023-04-18T09:33:56.647Z,14.80
2023-04-18T09:36:24.971Z,15.05
2023-04-18T09:38:56.029Z,16.05
2023-04-18T09:41:23.431Z,13.52
2023-04-18T09:43:50.322Z,17.65
2023-04-18T09:46:21.578Z,13.50
2023-04-18T09:48:48.235Z,15.45
2023-04-18T09:51:16.119Z,12.00
2023-04-18T09:53:47.872Z,20.15
2023-04-18T09:56:29.445Z,14.00
2023-04-18T09:59:00.909Z,14.85
2023-04-18T10:01:30.813Z,12.25
2023-04-18T10:04:01.371Z,13.98
2023-04-18T10:06:28.942Z,13.23
2023-04-18T10:08:56.277Z,13.82
2023-04-18T10:11:24.052Z,16.00
2023-04-18T10:13:55.596Z,12.60
2023-04-18T10:16:22.634Z,12.82
2023-04-18T10:18:50.683Z,11.38
2023-04-18T10:21:17.273Z,12.65
2023-04-18T10:23:46.036Z,11.88
2023-04-18T10:26:12.510Z,12.02
2023-04-18T10:28:54.560Z,10.43
2023-04-18T10:31:28.586Z,10.18
2023-04-18T10:36:28.804Z,8.45
2023-04-18T10:39:20.918Z,10.02
2023-04-18T10:41:51.427Z,11.98
2023-04-18T10:44:23.023Z,9.65
2023-04-18T10:46:52.978Z,9.90
2023-04-18T10:49:26.405Z,7.45
2023-04-18T10:51:59.600Z,11.32
2023-04-18T10:54:28.087Z,7.85
2023-04-18T10:56:56.651Z,9.40
2023-04-18T10:59:25.271Z,9.52
2023-04-18T11:01:57.769Z,9.48
2023-04-18T11:04:25.716Z,7.30
2023-04-18T11:06:58.222Z,7.82
2023-04-18T11:09:24.840Z,7.55
2023-04-18T11:12:05.218Z,7.78
2023-04-18T11:14:46.509Z,7.45
2023-04-18T11:17:18.204Z,10.43
2023-04-18T11:19:44.785Z,8.13
2023-04-18T11:22:11.980Z,7.13
2023-04-18T11:24:38.896Z,6.25
2023-04-18T11:27:05.773Z,7.25
2023-04-18T11:29:32.433Z,6.57
2023-04-18T11:31:59.019Z,7.15
2023-04-18T11:34:33.013Z,5.88
2023-04-18T11:36:59.843Z,7.93
2023-04-18T11:39:26.332Z,5.40
2023-04-18T11:41:55.354Z,6.10
2023-04-18T11:44:26.107Z,6.53
2023-04-18T11:46:53.449Z,5.03
2023-04-18T11:49:30.479Z,9.02
2023-04-18T11:51:57.831Z,6.10
2023-04-18T11:54:37.429Z,6.20
2023-04-18T11:57:04.428Z,5.63
2023-04-18T11:59:31.089Z,5.80
2023-04-18T12:02:14.752Z,5.20
2023-04-18T12:04:53.064Z,4.15
2023-04-18T12:07:33.748Z,6.55
2023-04-18T12:10:00.809Z,7.35
2023-04-18T12:12:27.279Z,8.77
2023-04-18T12:15:00.599Z,7.20
2023-04-18T12:17:28.328Z,6.63
2023-04-18T12:19:55.436Z,7.00
2023-04-18T12:22:45.749Z,8.43
2023-04-18T12:25:13.986Z,4.47
2023-04-18T12:27:55.681Z,6.50
2023-04-18T12:30:24.648Z,5.20
2023-04-18T12:32:59.836Z,5.15
2023-04-18T12:35:27.297Z,5.90
2023-04-18T12:37:56.019Z,5.47
2023-04-18T12:40:23.788Z,6.72
2023-04-18T12:42:51.144Z,5.10
2023-04-18T12:45:19.085Z,6.18
2023-04-18T12:47:47.770Z,5.22
2023-04-18T12:50:23.086Z,6.43
2023-04-18T12:52:53.450Z,4.80
2023-04-18T12:57:46.464Z,5.55
2023-04-18T13:00:14.053Z,4.53
2023-04-18T13:02:43.502Z,6.35
2023-04-18T13:05:12.545Z,3.93
2023-04-18T13:07:40.565Z,5.30
2023-04-18T13:10:08.991Z,5.13
2023-04-18T13:12:35.843Z,4.38
2023-04-18T13:15:03.304Z,5.45
2023-04-18T13:17:29.832Z,4.53
2023-04-18T13:19:56.538Z,4.07
2023-04-18T13:22:23.044Z,3.88
2023-04-18T13:24:49.696Z,4.80
2023-04-18T13:27:17.003Z,4.15
2023-04-18T13:29:44.219Z,4.75
2023-04-18T13:32:11.428Z,4.35
2023-04-18T13:34:39.675Z,4.97
2023-04-18T13:37:06.439Z,6.03
2023-04-18T13:39:33.748Z,6.90
2023-04-18T13:42:03.100Z,4.50
2023-04-18T13:44:34.150Z,4.57
2023-04-18T13:47:01.705Z,4.65
2023-04-18T13:49:28.857Z,5.30
2023-04-18T13:51:57.519Z,4.93
2023-04-18T13:54:29.480Z,5.00
2023-04-18T13:57:03.163Z,7.25
2023-04-18T13:59:33.248Z,7.63
2023-04-18T14:02:00.209Z,5.22
2023-04-18T14:04:27.402Z,5.80
2023-04-18T14:06:57.155Z,5.90
2023-04-18T14:09:23.674Z,5.57
2023-04-18T14:11:51.418Z,5.97
2023-04-18T14:14:18.218Z,8.00
2023-04-18T14:16:45.093Z,5.40
2023-04-18T14:19:11.889Z,5.18
2023-04-18T14:21:38.394Z,5.65
2023-04-18T14:24:05.631Z,4.72
2023-04-18T14:26:32.201Z,4.15
2023-04-18T14:28:58.757Z,5.05
2023-04-18T14:31:28.071Z,6.43
2023-04-18T14:33:54.623Z,7.53
2023-04-18T14:36:21.138Z,6.70
2023-04-18T14:38:49.211Z,5.05
2023-04-18T14:41:16.380Z,4.72
2023-04-18T14:43:43.191Z,7.80
2023-04-18T14:46:14.218Z,5.78
2023-04-18T14:48:40.903Z,5.57
2023-04-18T14:51:07.810Z,4.80
2023-04-18T14:53:34.372Z,4.28
2023-04-18T14:56:01.170Z,5.45
2023-04-18T14:58:27.739Z,3.40
2023-04-18T15:00:54.269Z,7.93
2023-04-18T15:03:20.942Z,6.50
2023-04-18T15:05:48.842Z,8.43
2023-04-18T15:08:16.160Z,4.75
2023-04-18T15:10:42.958Z,3.97
2023-04-18T15:13:11.196Z,8.20
2023-04-18T15:15:39.595Z,6.03
2023-04-18T15:18:08.261Z,6.95
2023-04-18T15:20:36.856Z,4.13
2023-04-18T15:23:03.627Z,4.70
2023-04-18T15:25:30.559Z,4.97
2023-04-18T15:27:58.306Z,4.20
2023-04-18T15:30:25.441Z,3.80
2023-04-18T15:32:53.862Z,4.50
2023-04-18T15:35:20.861Z,3.97
2023-04-18T15:37:47.552Z,4.43
2023-04-18T15:40:16.243Z,5.22
2023-04-18T15:42:43.682Z,4.65
2023-04-18T15:45:11.613Z,4.25
2023-04-18T15:47:38.809Z,5.53
2023-04-18T15:50:06.097Z,5.53
2023-04-18T15:52:33.036Z,3.72
2023-04-18T15:55:00.303Z,4.22
2023-04-18T15:57:29.240Z,5.43
2023-04-18T15:59:56.008Z,5.07
2023-04-18T16:02:22.855Z,5.45
2023-04-18T16:04:49.573Z,4.65
2023-04-18T16:07:16.646Z,5.60
2023-04-18T16:09:43.065Z,4.53
2023-04-18T16:12:09.637Z,6.13
2023-04-18T16:14:36.071Z,4.22
2023-04-18T16:17:03.092Z,5.07
2023-04-18T16:19:29.684Z,4.88
2023-04-18T16:21:56.272Z,6.53
2023-04-18T16:24:22.755Z,5.53
2023-04-18T16:26:49.181Z,4.25
2023-04-18T16:29:15.712Z,14.05
2023-04-18T16:31:43.202Z,5.80
2023-04-18T16:34:09.833Z,5.47
2023-04-18T16:36:36.389Z,5.10
2023-04-18T16:39:04.531Z,6.00
2023-04-18T16:41:31.131Z,5.00
2023-04-18T16:43:58.136Z,4.70
2023-04-18T16:46:25.335Z,4.22
2023-04-18T16:48:52.580Z,7.00
2023-04-18T16:51:19.295Z,6.60
2023-04-18T16:53:46.638Z,4.78
2023-04-18T16:56:13.204Z,4.07
2023-04-18T16:58:39.721Z,5.78
2023-04-18T17:01:08.138Z,5.32
2023-04-18T17:03:34.893Z,4.65
2023-04-18T17:06:01.665Z,4.90
2023-04-18T17:08:32.782Z,7.25
2023-04-18T17:10:59.718Z,4.43
2023-04-18T17:13:27.171Z,5.35
2023-04-18T17:15:54.109Z,5.18
2023-04-18T17:18:20.660Z,6.00
2023-04-18T17:20:47.640Z,5.47
2023-04-18T17:23:14.184Z,8.73
2023-04-18T17:25:40.785Z,5.60
2023-04-18T17:28:07.341Z,5.65
2023-04-18T17:30:33.784Z,5.35
2023-04-18T17:33:00.703Z,6.45
2023-04-18T17:35:27.232Z,5.53
2023-04-18T17:37:53.768Z,5.25
2023-04-18T17:40:20.232Z,6.97
2023-04-18T17:42:46.795Z,9.45
2023-04-18T17:45:13.178Z,6.85
2023-04-18T17:47:40.779Z,6.05
2023-04-18T17:50:08.008Z,6.53
2023-04-18T17:52:34.680Z,5.75
2023-04-18T17:55:01.660Z,5.53
2023-04-18T17:57:30.311Z,6.00
2023-04-18T17:59:56.938Z,6.97
2023-04-18T18:02:23.740Z,6.28
2023-04-18T18:04:51.340Z,6.45
2023-04-18T18:07:18.280Z,5.82
2023-04-18T18:09:48.093Z,7.60
2023-04-18T18:12:14.786Z,5.65
2023-04-18T18:14:41.223Z,6.72
2023-04-18T18:17:07.897Z,6.53
2023-04-18T18:19:36.282Z,6.95
2023-04-18T18:22:02.879Z,7.53
2023-04-18T18:24:29.706Z,6.63
2023-04-18T18:26:58.032Z,8.93
2023-04-18T18:29:24.574Z,11.15
2023-04-18T18:31:51.247Z,10.82
2023-04-18T18:34:17.829Z,7.80
2023-04-18T18:36:44.353Z,9.23
2023-04-18T18:39:11.037Z,8.38
2023-04-18T18:41:37.692Z,11.65
2023-04-18T18:44:04.219Z,9.98
2023-04-18T18:46:30.924Z,11.10
2023-04-18T18:48:57.634Z,10.68
2023-04-18T18:51:24.177Z,9.40
2023-04-18T18:53:50.724Z,9.80
2023-04-18T18:56:17.262Z,11.35
2023-04-18T18:58:43.779Z,9.52
2023-04-18T19:01:11.500Z,10.10
2023-04-18T19:03:38.280Z,10.13
2023-04-18T19:06:06.984Z,11.50
2023-04-18T19:08:33.777Z,9.63
2023-04-18T19:11:00.360Z,11.40
2023-04-18T19:13:26.882Z,8.95
2023-04-18T19:15:53.935Z,12.23
2023-04-18T19:18:21.199Z,9.57
2023-04-18T19:20:49.948Z,13.98
2023-04-18T19:23:17.173Z,10.20
2023-04-18T19:25:45.021Z,10.95
2023-04-18T19:28:12.922Z,12.18
2023-04-18T19:30:40.354Z,10.25
2023-04-18T19:33:07.072Z,11.32
2023-04-18T19:35:35.289Z,12.65
2023-04-18T19:38:03.409Z,12.25
2023-04-18T19:40:29.861Z,11.55
2023-04-18T19:42:56.668Z,14.93
2023-04-18T19:45:23.532Z,11.05
2023-04-18T19:47:50.204Z,13.07
2023-04-18T19:50:16.886Z,17.63
2023-04-18T19:52:43.535Z,13.35
2023-04-18T19:55:10.300Z,13.98
2023-04-18T19:57:39.186Z,13.48
2023-04-18T20:00:11.478Z,13.30
2023-04-18T20:02:42.225Z,14.48
2023-04-18T20:05:09.486Z,13.15
2023-04-18T20:07:36.159Z,15.93
2023-04-18T20:10:04.251Z,16.15
2023-04-18T20:12:31.133Z,12.57
2023-04-18T20:14:58.797Z,13.15
2023-04-18T20:17:30.200Z,11.98
2023-04-18T20:19:57.218Z,14.63
2023-04-18T20:22:26.745Z,15.60
2023-04-18T20:24:57.261Z,20.13
2023-04-18T20:27:24.274Z,15.85
2023-04-18T20:29:50.806Z,14.60
2023-04-18T20:32:17.431Z,13.05
2023-04-18T20:34:45.777Z,13.13
2023-04-18T20:37:15.893Z,13.43
2023-04-18T20:39:42.471Z,14.45
2023-04-18T20:42:14.324Z,14.57
2023-04-18T20:44:43.151Z,14.07
2023-04-18T20:47:09.900Z,14.68
2023-04-18T20:49:36.717Z,14.23
2023-04-18T20:52:06.279Z,16.90
2023-04-18T20:54:32.898Z,13.70
2023-04-18T20:56:59.580Z,16.30
2023-04-18T20:59:26.020Z,14.85
2023-04-18T21:01:52.685Z,14.48
2023-04-18T21:04:19.479Z,19.10
2023-04-18T21:06:47.032Z,16.92
2023-04-18T21:09:13.915Z,15.32
2023-04-18T21:11:40.686Z,16.40
2023-04-18T21:14:07.616Z,14.63
2023-04-18T21:16:34.145Z,17.38
2023-04-18T21:19:00.707Z,15.00
2023-04-18T21:21:27.293Z,17.02
2023-04-18T21:23:53.833Z,16.52
2023-04-18T21:26:20.911Z,14.65
2023-04-18T21:29:01.682Z,15.50
2023-04-18T21:31:30.602Z,15.18
2023-04-18T21:33:59.290Z,14.75
2023-04-18T21:36:27.390Z,12.70
2023-04-18T21:38:56.035Z,14.13
2023-04-18T21:41:23.290Z,14.23
2023-04-18T21:43:50.608Z,13.15
2023-04-18T21:46:17.820Z,13.07
2023-04-18T21:48:46.405Z,14.55
2023-04-18T21:51:15.745Z,12.95
2023-04-18T21:53:42.869Z,11.73
2023-04-18T21:56:09.360Z,11.40
2023-04-18T21:58:35.847Z,9.65
2023-04-18T22:01:02.878Z,9.55
2023-04-18T22:03:29.997Z,10.80
2023-04-18T22:05:57.420Z,9.98
2023-04-18T22:08:28.162Z,10.13
2023-04-18T22:10:56.278Z,9.32
2023-04-18T22:13:23.616Z,8.82
2023-04-18T22:15:51.392Z,8.93
2023-04-18T22:18:18.956Z,8.65
2023-04-18T22:20:46.878Z,9.52
2023-04-18T22:23:13.781Z,10.45
2023-04-18T22:25:40.581Z,8.98
2023-04-18T22:28:07.711Z,8.60
2023-04-18T22:30:34.515Z,9.10
2023-04-18T22:33:01.172Z,7.40
2023-04-18T22:35:27.874Z,8.43
2023-04-18T22:37:55.650Z,8.73
2023-04-18T22:40:22.138Z,9.80
2023-04-18T22:42:48.600Z,9.85
2023-04-18T22:45:15.499Z,9.38
2023-04-18T22:47:42.206Z,8.50
2023-04-18T22:50:09.042Z,7.68
2023-04-18T22:52:35.684Z,8.98
2023-04-18T22:55:03.148Z,9.82
2023-04-18T22:57:29.819Z,7.70
2023-04-18T22:59:56.483Z,8.48
2023-04-18T23:02:23.094Z,8.43
2023-04-18T23:04:50.518Z,8.02
2023-04-18T23:07:17.299Z,8.73
2023-04-18T23:09:43.858Z,9.23
2023-04-18T23:12:10.406Z,7.95
2023-04-18T23:14:36.909Z,10.35
2023-04-18T23:17:03.366Z,9.05
2023-04-18T23:19:29.885Z,8.25
2023-04-18T23:21:56.372Z,9.75
2023-04-18T23:24:22.816Z,8.90
2023-04-18T23:26:49.629Z,10.38
2023-04-18T23:29:16.116Z,11.15
2023-04-18T23:31:42.772Z,9.60
2023-04-18T23:34:09.930Z,9.88
2023-04-18T23:36:37.313Z,11.38
2023-04-18T23:39:04.277Z,9.88
2023-04-18T23:41:30.831Z,8.68
2023-04-18T23:43:57.299Z,8.77
2023-04-18T23:46:23.791Z,9.18
2023-04-18T23:48:50.293Z,8.45
2023-04-18T23:51:16.827Z,9.27
2023-04-18T23:53:43.272Z,13.63
2023-04-18T23:56:10.085Z,10.98
2023-04-18T23:58:36.731Z,10.45
